Time;durP1;ratioP1;P1;durP2;ratioP2;P2;SDS_P1;SDS_P2;PMS_P1;PMS_P2;Temp;Humidity;BMP_temperature;BMP_pressure;BME280_temperature;BME280_humidity;BME280_pressure;Samples;Min_cycle;Max_cycle;Signal;HPM_P1;HPM_P2
2024/01/12 00:02:05;;;;;;;15.17;14.37;;;-2.10;99.90;;;;;;5117642;28;20653;-62
2024/01/12 00:04:32;;;;;;;15.63;14.80;;;-2.00;99.90;;;;;;5119816;28;20213;-61
2024/01/12 00:06:58;;;;;;;14.90;14.10;;;-2.00;99.90;;;;;;5117320;27;20221;-63
2024/01/12 00:09:26;;;;;;;14.57;13.85;;;-2.00;99.90;;;;;;5120287;27;20202;-62
2024/01/12 00:11:53;;;;;;;15.73;14.93;;;-1.90;99.90;;;;;;5115566;27;20221;-62
2024/01/12 00:14:20;;;;;;;15.67;14.87;;;-1.90;99.90;;;;;;5120109;28;20228;-62
2024/01/12 00:16:48;;;;;;;15.00;14.10;;;-2.00;99.90;;;;;;5119506;28;20206;-62
2024/01/12 00:19:17;;;;;;;14.57;13.77;;;-2.00;99.90;;;;;;5125586;28;20660;-63
2024/01/12 00:21:44;;;;;;;14.68;13.88;;;-2.00;99.90;;;;;;5121921;27;20843;-62
2024/01/12 00:24:11;;;;;;;15.57;14.68;;;-2.00;99.90;;;;;;5116951;27;20239;-62
2024/01/12 00:26:39;;;;;;;17.67;16.50;;;-2.00;99.90;;;;;;5113908;27;20209;-61
2024/01/12 00:29:06;;;;;;;16.08;15.10;;;-2.10;99.90;;;;;;5112091;28;20661;-61
2024/01/12 00:31:33;;;;;;;16.27;15.38;;;-2.20;99.90;;;;;;5116588;27;20554;-61
2024/01/12 00:34:00;;;;;;;15.90;15.10;;;-2.30;99.90;;;;;;5113483;27;20262;-62
2024/01/12 00:36:27;;;;;;;15.02;14.15;;;-2.30;99.90;;;;;;5116253;27;20206;-62
2024/01/12 00:38:54;;;;;;;16.75;15.85;;;-2.40;99.90;;;;;;5115650;27;20202;-61
2024/01/12 00:41:22;;;;;;;16.75;15.85;;;-2.50;99.90;;;;;;5115416;27;20206;-62
2024/01/12 00:43:50;;;;;;;17.92;16.98;;;-2.70;99.90;;;;;;5131730;27;20352;-62
2024/01/12 00:46:17;;;;;;;17.17;16.30;;;-2.70;99.90;;;;;;5126430;27;20202;-62
2024/01/12 00:48:43;;;;;;;17.57;16.60;;;-2.70;99.90;;;;;;5131376;27;20937;-64
2024/01/12 00:51:11;;;;;;;17.90;16.90;;;-2.80;99.90;;;;;;5131338;27;20219;-62
2024/01/12 00:53:38;;;;;;;17.98;16.98;;;-2.80;99.90;;;;;;5128803;27;20224;-61
2024/01/12 00:56:04;;;;;;;16.77;15.95;;;-2.80;99.90;;;;;;5122639;27;20210;-61
2024/01/12 00:58:31;;;;;;;16.63;15.73;;;-2.90;99.90;;;;;;5122683;27;20197;-62
2024/01/12 01:00:59;;;;;;;17.83;16.92;;;-2.90;99.90;;;;;;5117076;27;20665;-63
2024/01/12 01:03:26;;;;;;;16.60;15.80;;;-2.80;99.90;;;;;;5118048;27;20226;-62
2024/01/12 01:05:52;;;;;;;16.63;15.73;;;-2.80;99.90;;;;;;5113327;27;20201;-62
2024/01/12 01:08:19;;;;;;;15.98;15.18;;;-2.80;99.90;;;;;;5118771;27;20224;-62
2024/01/12 01:10:46;;;;;;;16.23;15.43;;;-2.70;99.90;;;;;;5119682;27;20669;-62
2024/01/12 01:13:14;;;;;;;17.00;16.20;;;-2.70;99.90;;;;;;5119238;27;20222;-62
2024/01/12 01:15:40;;;;;;;16.87;15.97;;;-2.60;99.90;;;;;;5121025;27;20216;-62
2024/01/12 01:18:10;;;;;;;16.23;15.43;;;-2.60;99.90;;;;;;5115522;27;20646;-62
2024/01/12 01:20:37;;;;;;;15.68;14.88;;;-2.60;99.90;;;;;;5119048;27;20687;-62
2024/01/12 01:23:04;;;;;;;16.20;15.40;;;-2.50;99.90;;;;;;5120630;27;20594;-61
2024/01/12 01:25:31;;;;;;;15.57;14.77;;;-2.60;99.90;;;;;;5116490;27;20212;-61
2024/01/12 01:27:58;;;;;;;16.42;15.52;;;-2.50;99.90;;;;;;5116654;27;20215;-63
2024/01/12 01:30:24;;;;;;;16.02;15.23;;;-2.60;99.90;;;;;;5117020;27;20615;-59
2024/01/12 01:32:51;;;;;;;15.25;14.45;;;-2.50;99.90;;;;;;5119618;27;20249;-62
2024/01/12 01:35:19;;;;;;;15.85;15.05;;;-2.50;99.90;;;;;;5120992;27;20203;-62
2024/01/12 01:37:46;;;;;;;15.60;14.80;;;-2.40;99.90;;;;;;5131640;27;20206;-62
2024/01/12 01:40:12;;;;;;;15.43;14.63;;;-2.40;99.90;;;;;;5135257;27;20573;-62
2024/01/12 01:42:40;;;;;;;15.77;14.97;;;-2.50;99.90;;;;;;5127583;27;20209;-61
2024/01/12 01:45:07;;;;;;;15.75;14.95;;;-2.40;99.90;;;;;;5129097;27;20285;-61
2024/01/12 01:47:34;;;;;;;15.45;14.65;;;-2.40;99.90;;;;;;5124482;27;20197;-60
2024/01/12 01:50:01;;;;;;;15.63;14.83;;;-2.40;99.90;;;;;;5126869;27;20206;-60
2024/01/12 01:52:29;;;;;;;15.45;14.70;;;-2.40;99.90;;;;;;5125463;27;20313;-61
2024/01/12 01:54:58;;;;;;;15.60;14.90;;;-2.40;99.90;;;;;;5123114;27;20206;-61
2024/01/12 01:57:26;;;;;;;16.00;15.20;;;-2.50;99.90;;;;;;5124723;27;20213;-61
2024/01/12 01:59:54;;;;;;;16.52;15.63;;;-2.50;99.90;;;;;;5116816;27;20197;-61
2024/01/12 02:02:21;;;;;;;16.80;15.90;;;-2.60;99.90;;;;;;5115311;27;20205;-62
2024/01/12 02:04:48;;;;;;;17.33;16.33;;;-2.40;99.90;;;;;;5118873;27;20302;-60
2024/01/12 02:07:15;;;;;;;16.13;15.32;;;-2.70;99.90;;;;;;5130531;27;20767;-59
2024/01/12 02:09:44;;;;;;;17.58;16.60;;;-2.70;99.90;;;;;;5133177;27;20201;-61
2024/01/12 02:12:11;;;;;;;16.95;16.05;;;-2.80;99.90;;;;;;5130807;27;20214;-61
2024/01/12 02:14:38;;;;;;;15.77;14.98;;;-2.80;99.90;;;;;;5125023;27;20325;-61
2024/01/12 02:17:05;;;;;;;16.80;15.88;;;-2.80;99.90;;;;;;5125868;27;20664;-62
2024/01/12 02:19:31;;;;;;;15.68;14.88;;;-2.80;99.90;;;;;;5130204;27;20340;-60
2024/01/12 02:21:59;;;;;;;15.88;15.07;;;-2.80;99.90;;;;;;5132706;27;20197;-62
2024/01/12 02:24:26;;;;;;;15.70;14.90;;;-2.80;99.90;;;;;;5131654;27;20213;-61
2024/01/12 02:26:53;;;;;;;16.33;15.53;;;-2.80;99.90;;;;;;5129554;27;20205;-60
2024/01/12 02:29:20;;;;;;;16.07;15.27;;;-2.80;99.90;;;;;;5132369;27;20228;-62
2024/01/12 02:31:49;;;;;;;17.02;16.13;;;-2.80;99.90;;;;;;5128085;27;20226;-59
2024/01/12 02:34:16;;;;;;;15.88;15.02;;;-2.80;99.90;;;;;;5127514;27;20229;-61
2024/01/12 02:36:43;;;;;;;18.10;16.90;;;-2.80;99.90;;;;;;5129071;27;20197;-61
2024/01/12 02:39:11;;;;;;;14.83;14.13;;;-2.90;99.90;;;;;;5125572;27;20204;-62
2024/01/12 02:41:38;;;;;;;16.08;15.27;;;-2.80;99.90;;;;;;5136070;27;20210;-62
2024/01/12 02:44:05;;;;;;;15.90;15.02;;;-2.80;99.90;;;;;;5125093;27;20236;-63
2024/01/12 02:46:32;;;;;;;17.45;16.35;;;-2.80;99.90;;;;;;5124602;27;20280;-59
2024/01/12 02:48:58;;;;;;;15.15;14.35;;;-2.90;99.90;;;;;;5124955;27;20238;-61
2024/01/12 02:51:25;;;;;;;15.52;14.75;;;-2.90;99.90;;;;;;5126984;27;20224;-63
2024/01/12 02:53:52;;;;;;;15.80;15.00;;;-2.80;99.90;;;;;;5127883;27;20221;-61
2024/01/12 02:56:20;;;;;;;14.10;13.40;;;-2.80;99.90;;;;;;5128569;27;20201;-63
2024/01/12 02:58:46;;;;;;;15.37;14.57;;;-2.70;99.90;;;;;;5117582;27;20205;-61
2024/01/12 03:01:13;;;;;;;14.68;13.93;;;-2.70;99.90;;;;;;5113010;28;20198;-63
2024/01/12 03:03:40;;;;;;;14.15;13.45;;;-2.60;99.90;;;;;;5110779;28;20225;-63
2024/01/12 03:06:07;;;;;;;15.35;14.55;;;-2.60;99.90;;;;;;5108260;28;20548;-61
2024/01/12 03:08:34;;;;;;;14.07;13.40;;;-2.50;99.90;;;;;;5110298;28;20213;-64
2024/01/12 03:11:01;;;;;;;15.45;14.65;;;-2.60;99.90;;;;;;5110716;27;20213;-63
2024/01/12 03:13:32;;;;;;;15.98;15.23;;;-2.60;99.90;;;;;;5110536;28;20225;-63
2024/01/12 03:15:58;;;;;;;15.35;14.65;;;-2.60;99.90;;;;;;5110651;28;20228;-61
2024/01/12 03:18:25;;;;;;;15.93;15.13;;;-2.70;99.90;;;;;;5109931;28;20217;-62
2024/01/12 03:20:52;;;;;;;14.32;13.63;;;-2.70;99.90;;;;;;5110472;28;20236;-63
2024/01/12 03:23:19;;;;;;;14.45;13.75;;;-2.70;99.90;;;;;;5110508;28;20214;-64
2024/01/12 03:25:45;;;;;;;14.38;13.65;;;-2.70;99.90;;;;;;5110603;28;20202;-62
2024/01/12 03:28:12;;;;;;;14.67;13.97;;;-2.60;99.90;;;;;;5109126;28;20218;-64
2024/01/12 03:30:40;;;;;;;15.07;14.27;;;-2.60;99.90;;;;;;5110198;28;20202;-62
2024/01/12 03:33:08;;;;;;;15.10;14.40;;;-2.60;99.90;;;;;;5110295;28;20240;-63
2024/01/12 03:35:35;;;;;;;15.85;15.00;;;-2.60;99.90;;;;;;5113466;28;20197;-61
2024/01/12 03:38:02;;;;;;;15.52;14.73;;;-2.60;99.90;;;;;;5113848;28;20209;-62
2024/01/12 03:40:29;;;;;;;14.88;14.15;;;-2.60;99.90;;;;;;5107879;28;20309;-61
2024/01/12 03:42:56;;;;;;;15.32;14.52;;;-2.70;99.90;;;;;;5109444;28;20222;-61
2024/01/12 03:45:22;;;;;;;16.07;15.27;;;-2.70;99.90;;;;;;5110424;28;20571;-63
2024/01/12 03:47:51;;;;;;;16.48;15.57;;;-2.80;99.90;;;;;;5109796;28;20247;-61
2024/01/12 03:50:17;;;;;;;15.10;14.35;;;-2.90;99.90;;;;;;5111120;27;20201;-62
2024/01/12 03:52:44;;;;;;;15.20;14.30;;;-3.00;99.90;;;;;;5111498;28;20230;-61
2024/01/12 03:55:11;;;;;;;15.50;14.70;;;-3.10;99.90;;;;;;5111251;28;20198;-63
2024/01/12 03:57:37;;;;;;;16.65;15.75;;;-3.10;99.90;;;;;;5110196;28;20210;-60
2024/01/12 04:00:05;;;;;;;16.60;15.70;;;-3.10;99.90;;;;;;5110820;28;20206;-63
2024/01/12 04:02:32;;;;;;;16.30;15.40;;;-3.10;99.90;;;;;;5110528;28;20292;-63
2024/01/12 04:05:00;;;;;;;15.87;15.07;;;-3.10;99.90;;;;;;5110638;28;20206;-64
2024/01/12 04:07:27;;;;;;;15.40;14.63;;;-3.20;99.90;;;;;;5113389;28;20210;-63
2024/01/12 04:09:54;;;;;;;15.23;14.37;;;-3.20;99.90;;;;;;5114386;28;20220;-61
2024/01/12 04:12:20;;;;;;;15.17;14.47;;;-3.20;99.90;;;;;;5114177;27;20225;-63
2024/01/12 04:14:47;;;;;;;14.10;13.40;;;-3.20;99.90;;;;;;5113908;28;20800;-62
2024/01/12 04:17:14;;;;;;;16.07;15.07;;;-3.20;99.90;;;;;;5111375;28;20214;-62
2024/01/12 04:19:41;;;;;;;15.70;14.83;;;-3.10;99.90;;;;;;5114661;28;20201;-62
2024/01/12 04:22:08;;;;;;;15.25;14.45;;;-3.10;99.90;;;;;;5114781;28;20202;-63
2024/01/12 04:24:35;;;;;;;15.27;14.47;;;-3.10;99.90;;;;;;5114567;28;20274;-61
2024/01/12 04:27:01;;;;;;;15.97;15.13;;;-3.10;99.90;;;;;;5113499;28;20206;-63
2024/01/12 04:29:27;;;;;;;15.98;15.18;;;-3.10;99.90;;;;;;5112323;28;20256;-61
2024/01/12 04:31:54;;;;;;;15.00;14.23;;;-3.10;99.90;;;;;;5114287;28;20257;-62
2024/01/12 04:34:21;;;;;;;15.02;14.18;;;-3.10;99.90;;;;;;5112688;28;20214;-62
2024/01/12 04:36:48;;;;;;;15.05;14.35;;;-3.00;99.90;;;;;;5114016;28;20206;-61
2024/01/12 04:39:16;;;;;;;14.38;13.68;;;-2.90;99.90;;;;;;5114637;28;20206;-61
2024/01/12 04:41:43;;;;;;;14.87;14.07;;;-2.90;99.90;;;;;;5114081;28;20244;-61
2024/01/12 04:44:10;;;;;;;15.30;14.50;;;-2.90;99.90;;;;;;5114160;28;20232;-60
2024/01/12 04:46:38;;;;;;;17.40;16.30;;;-2.90;99.90;;;;;;5113620;27;20205;-63
2024/01/12 04:49:04;;;;;;;15.20;14.48;;;-2.90;99.90;;;;;;5113641;28;20239;-62
2024/01/12 04:51:31;;;;;;;15.33;14.53;;;-2.90;99.90;;;;;;5113710;28;20194;-62
2024/01/12 04:53:58;;;;;;;14.23;13.52;;;-2.90;99.90;;;;;;5113887;28;20226;-61
2024/01/12 04:56:27;;;;;;;14.97;14.20;;;-2.90;99.90;;;;;;5113974;28;20204;-63
2024/01/12 04:58:53;;;;;;;15.17;14.37;;;-2.80;99.90;;;;;;5112274;28;20301;-63
2024/01/12 05:01:21;;;;;;;15.37;14.57;;;-2.80;99.90;;;;;;5113833;27;20213;-63
2024/01/12 05:03:48;;;;;;;15.18;14.40;;;-2.70;99.90;;;;;;5113859;28;20232;-63
2024/01/12 05:06:15;;;;;;;15.63;14.93;;;-2.70;99.90;;;;;;5114319;27;20209;-63
2024/01/12 05:08:42;;;;;;;15.53;14.73;;;-2.70;99.90;;;;;;5117935;27;20201;-64
2024/01/12 05:11:08;;;;;;;14.70;14.00;;;-2.70;99.90;;;;;;5127819;27;20209;-60
2024/01/12 05:13:36;;;;;;;16.63;15.73;;;-2.60;99.90;;;;;;5133758;27;20233;-61
2024/01/12 05:16:03;;;;;;;15.82;15.02;;;-2.70;99.90;;;;;;5130385;27;20584;-61
2024/01/12 05:18:30;;;;;;;16.03;15.13;;;-2.80;99.90;;;;;;5134994;27;20323;-62
2024/01/12 05:20:57;;;;;;;15.50;14.70;;;-2.80;99.90;;;;;;5132990;27;20204;-62
2024/01/12 05:23:24;;;;;;;14.87;14.17;;;-2.90;99.90;;;;;;5134382;27;20209;-63
2024/01/12 05:25:50;;;;;;;15.57;14.77;;;-2.90;99.90;;;;;;5127653;27;20220;-64
2024/01/12 05:28:17;;;;;;;15.82;14.95;;;-3.00;99.90;;;;;;5129937;27;20197;-63
2024/01/12 05:30:46;;;;;;;15.85;14.95;;;-3.00;99.90;;;;;;5132351;27;20205;-64
2024/01/12 05:33:12;;;;;;;16.10;15.20;;;-2.90;99.90;;;;;;5131078;27;20232;-63
2024/01/12 05:35:39;;;;;;;16.58;15.68;;;-3.00;99.90;;;;;;5132989;27;20670;-63
2024/01/12 05:38:06;;;;;;;15.45;14.60;;;-3.10;99.90;;;;;;5127088;27;20201;-65
2024/01/12 05:40:32;;;;;;;15.83;15.00;;;-3.10;99.90;;;;;;5130372;27;20224;-66
2024/01/12 05:42:59;;;;;;;14.85;14.15;;;-3.20;99.90;;;;;;5130852;27;20229;-66
2024/01/12 05:45:26;;;;;;;15.43;14.60;;;-3.20;99.90;;;;;;5134583;27;20198;-67
2024/01/12 05:47:54;;;;;;;14.18;13.48;;;-3.30;99.90;;;;;;5143745;27;20537;-64
2024/01/12 05:50:20;;;;;;;16.10;15.20;;;-3.30;99.90;;;;;;5138558;27;20209;-66
2024/01/12 05:52:47;;;;;;;15.55;14.73;;;-3.30;99.90;;;;;;5141608;27;20238;-64
2024/01/12 05:55:14;;;;;;;15.07;14.27;;;-3.30;99.90;;;;;;5134998;27;20346;-65
2024/01/12 05:57:41;;;;;;;14.50;13.70;;;-3.30;99.90;;;;;;5127694;27;20201;-66
2024/01/12 06:00:09;;;;;;;15.03;14.13;;;-3.30;99.90;;;;;;5130400;27;20232;-64
2024/01/12 06:02:36;;;;;;;15.02;14.27;;;-3.30;99.90;;;;;;5123999;27;20230;-65
2024/01/12 06:05:04;;;;;;;14.83;14.03;;;-3.30;99.90;;;;;;5130427;27;20213;-65
2024/01/12 06:07:31;;;;;;;15.80;14.80;;;-3.30;99.90;;;;;;5125653;27;20201;-65
2024/01/12 06:09:58;;;;;;;14.07;13.30;;;-3.40;99.90;;;;;;5130245;27;20220;-63
2024/01/12 06:12:25;;;;;;;14.27;13.48;;;-3.50;99.90;;;;;;5127368;27;20714;-66
2024/01/12 06:14:52;;;;;;;13.77;13.07;;;-3.50;99.90;;;;;;5129178;27;20206;-65
2024/01/12 06:17:19;;;;;;;14.83;13.93;;;-3.50;99.90;;;;;;5139567;27;20215;-67
2024/01/12 06:19:46;;;;;;;15.63;14.63;;;-3.60;99.90;;;;;;5142912;27;20209;-65
2024/01/12 06:22:14;;;;;;;14.65;13.75;;;-3.60;99.90;;;;;;5126188;27;20664;-64
2024/01/12 06:24:41;;;;;;;14.07;13.27;;;-3.60;99.90;;;;;;5130036;27;20324;-63
2024/01/12 06:27:07;;;;;;;15.47;14.57;;;-3.60;99.90;;;;;;5121945;27;20698;-64
2024/01/12 06:29:34;;;;;;;15.23;14.32;;;-3.60;99.90;;;;;;5123084;27;20197;-63
2024/01/12 06:32:02;;;;;;;14.45;13.65;;;-3.60;99.90;;;;;;5125477;27;20221;-63
2024/01/12 06:34:29;;;;;;;15.13;14.33;;;-3.60;99.90;;;;;;5123124;27;20271;-62
2024/01/12 06:36:56;;;;;;;14.50;13.70;;;-3.70;99.90;;;;;;5122591;27;20208;-64
2024/01/12 06:39:24;;;;;;;15.10;14.30;;;-3.70;99.90;;;;;;5121008;27;20247;-65
2024/01/12 06:41:52;;;;;;;14.50;13.70;;;-3.80;99.90;;;;;;5123662;27;20213;-65
2024/01/12 06:44:19;;;;;;;14.67;13.93;;;-3.80;99.90;;;;;;5127911;27;20310;-64
2024/01/12 06:46:46;;;;;;;16.17;15.07;;;-3.80;99.90;;;;;;5125616;27;20604;-64
2024/01/12 06:49:13;;;;;;;15.03;14.10;;;-3.70;99.90;;;;;;5124206;27;20265;-65
2024/01/12 06:51:39;;;;;;;15.30;14.40;;;-3.60;99.90;;;;;;5125565;27;20205;-65
2024/01/12 06:54:06;;;;;;;14.95;14.05;;;-3.60;99.90;;;;;;5123474;27;20232;-65
2024/01/12 06:56:37;;;;;;;14.07;13.25;;;-3.60;99.90;;;;;;5127254;27;20300;-65
2024/01/12 06:59:04;;;;;;;14.02;13.32;;;-3.50;99.90;;;;;;5121014;27;20284;-64
2024/01/12 07:01:31;;;;;;;13.30;12.50;;;-3.50;99.90;;;;;;5129420;27;20269;-64
2024/01/12 07:03:58;;;;;;;13.40;12.70;;;-3.50;99.90;;;;;;5132415;27;20235;-64
2024/01/12 07:06:24;;;;;;;14.13;13.32;;;-3.30;99.90;;;;;;5135003;27;20329;-65
2024/01/12 07:08:51;;;;;;;14.55;13.82;;;-3.30;99.90;;;;;;5128402;27;20213;-65
2024/01/12 07:11:18;;;;;;;14.23;13.43;;;-3.20;99.90;;;;;;5126599;27;20291;-65
2024/01/12 07:13:46;;;;;;;14.45;13.65;;;-3.20;99.90;;;;;;5125482;27;20229;-67
2024/01/12 07:16:12;;;;;;;14.93;14.20;;;-3.20;99.90;;;;;;5124742;27;20205;-66
2024/01/12 07:18:39;;;;;;;13.95;13.27;;;-3.10;99.90;;;;;;5122664;27;20213;-64
2024/01/12 07:21:06;;;;;;;16.45;15.55;;;-3.10;99.90;;;;;;5122435;27;20205;-65
2024/01/12 07:23:33;;;;;;;15.48;14.65;;;-3.10;99.90;;;;;;5126115;27;20887;-64
2024/01/12 07:26:00;;;;;;;15.13;14.35;;;-2.90;99.90;;;;;;5123067;27;20211;-63
2024/01/12 07:28:27;;;;;;;14.05;13.35;;;-2.80;99.90;;;;;;5125015;27;20198;-64
2024/01/12 07:30:55;;;;;;;15.55;14.68;;;-2.80;99.90;;;;;;5122994;27;20296;-63
2024/01/12 07:33:22;;;;;;;14.50;13.80;;;-2.80;99.90;;;;;;5122435;27;20229;-64
2024/01/12 07:35:49;;;;;;;14.73;13.93;;;-2.80;99.90;;;;;;5125393;27;20202;-63
2024/01/12 07:38:16;;;;;;;14.25;13.45;;;-2.80;99.90;;;;;;5123189;27;20591;-64
2024/01/12 07:40:42;;;;;;;13.73;13.13;;;-2.80;99.90;;;;;;5120958;27;20212;-63
2024/01/12 07:43:09;;;;;;;13.95;13.25;;;-2.90;99.90;;;;;;5122616;27;20453;-65
2024/01/12 07:45:36;;;;;;;15.15;14.30;;;-2.90;99.90;;;;;;5118134;27;20582;-63
2024/01/12 07:48:04;;;;;;;14.98;14.18;;;-2.90;99.90;;;;;;5121138;27;20228;-64
2024/01/12 07:50:32;;;;;;;15.45;14.40;;;-2.90;99.90;;;;;;5126264;27;20205;-65
2024/01/12 07:52:58;;;;;;;14.20;13.50;;;-2.90;99.90;;;;;;5128704;27;20228;-64
2024/01/12 07:55:27;;;;;;;15.07;14.23;;;-2.90;99.90;;;;;;5124670;28;20201;-63
2024/01/12 07:57:54;;;;;;;15.30;14.40;;;-2.90;99.90;;;;;;5123304;27;20212;-64
2024/01/12 08:00:20;;;;;;;15.80;14.80;;;-2.80;99.90;;;;;;5126436;27;20220;-65
2024/01/12 08:02:47;;;;;;;14.90;14.10;;;-2.90;99.90;;;;;;5123448;27;20217;-65
2024/01/12 08:05:15;;;;;;;15.88;14.98;;;-2.90;99.90;;;;;;5125684;27;20307;-64
2024/01/12 08:07:42;;;;;;;14.87;14.17;;;-2.90;99.90;;;;;;5127103;27;20232;-66
2024/01/12 08:10:09;;;;;;;14.67;13.97;;;-3.30;99.90;;;;;;5111419;27;20209;-65
2024/01/12 08:12:36;;;;;;;14.93;14.13;;;-2.90;99.90;;;;;;5108004;28;20209;-63
2024/01/12 08:15:03;;;;;;;15.00;14.10;;;-3.00;99.90;;;;;;5115676;28;20388;-65
2024/01/12 08:17:30;;;;;;;15.52;14.63;;;-3.00;99.90;;;;;;5121918;28;20220;-63
2024/01/12 08:19:57;;;;;;;15.82;14.98;;;-3.00;99.90;;;;;;5124014;27;20854;-63
2024/01/12 08:22:25;;;;;;;14.98;14.18;;;-2.90;99.90;;;;;;5123580;27;20201;-64
2024/01/12 08:24:51;;;;;;;15.70;14.90;;;-2.90;99.90;;;;;;5123911;27;20556;-65
2024/01/12 08:27:18;;;;;;;15.40;14.60;;;-2.80;99.90;;;;;;5125809;28;20291;-65
2024/01/12 08:29:45;;;;;;;15.77;14.88;;;-2.70;99.90;;;;;;5127056;27;20202;-63
2024/01/12 08:32:11;;;;;;;15.52;14.73;;;-2.50;99.90;;;;;;5126836;27;20209;-64
2024/01/12 08:34:40;;;;;;;15.10;14.30;;;-2.40;99.90;;;;;;5129121;28;20236;-64
2024/01/12 08:37:07;;;;;;;16.50;15.60;;;-2.30;99.90;;;;;;5123701;28;20251;-64
2024/01/12 08:39:35;;;;;;;15.45;14.65;;;-2.30;99.90;;;;;;5121874;28;20235;-65
2024/01/12 08:42:02;;;;;;;15.93;15.13;;;-2.30;99.90;;;;;;5120205;28;20202;-63
2024/01/12 08:44:29;;;;;;;15.43;14.63;;;-2.20;99.90;;;;;;5131568;28;20305;-64
2024/01/12 08:46:56;;;;;;;15.18;14.43;;;-2.10;99.90;;;;;;5116026;28;20212;-64
2024/01/12 08:49:23;;;;;;;15.17;14.37;;;-2.00;99.90;;;;;;5120938;28;20209;-64
2024/01/12 08:51:50;;;;;;;14.98;14.18;;;-1.90;99.90;;;;;;5115411;27;20208;-65
2024/01/12 08:54:18;;;;;;;15.02;14.13;;;-1.70;99.90;;;;;;5129037;27;20257;-65
2024/01/12 08:56:46;;;;;;;14.32;13.45;;;-1.50;99.90;;;;;;5113977;27;20197;-63
2024/01/12 08:59:12;;;;;;;14.00;13.30;;;-1.40;99.90;;;;;;5124693;27;20194;-63
2024/01/12 09:01:39;;;;;;;14.40;13.70;;;-1.30;99.90;;;;;;5126939;27;20202;-65
2024/01/12 09:04:06;;;;;;;14.35;13.60;;;-1.20;99.90;;;;;;5117856;27;20217;-63
2024/01/12 09:06:33;;;;;;;14.77;14.02;;;-1.20;99.90;;;;;;5115822;27;20207;-65
2024/01/12 09:09:00;;;;;;;14.80;14.00;;;-1.10;99.90;;;;;;5118286;27;20197;-64
2024/01/12 09:11:26;;;;;;;14.20;13.50;;;-0.90;99.90;;;;;;5119289;27;20599;-64
2024/01/12 09:13:54;;;;;;;14.70;13.90;;;-0.90;99.90;;;;;;5114393;27;20225;-65
2024/01/12 09:16:21;;;;;;;14.50;13.80;;;-0.80;99.90;;;;;;5108977;28;20633;-64
2024/01/12 09:18:48;;;;;;;14.83;14.13;;;-0.60;99.90;;;;;;5108527;28;20217;-64
2024/01/12 09:21:15;;;;;;;14.97;14.17;;;-0.50;99.90;;;;;;5118912;27;20648;-64
2024/01/12 09:23:42;;;;;;;15.23;14.45;;;-0.40;99.90;;;;;;5122232;27;20245;-65
2024/01/12 09:26:09;;;;;;;16.70;15.80;;;-0.40;99.90;;;;;;5126752;27;20208;-65
2024/01/12 09:28:36;;;;;;;16.37;15.47;;;-0.30;99.90;;;;;;5126494;27;20312;-63
2024/01/12 09:31:05;;;;;;;14.97;14.20;;;-0.20;99.90;;;;;;5116964;27;20220;-64
2024/01/12 09:33:31;;;;;;;16.27;15.47;;;-0.20;99.90;;;;;;5116550;27;20222;-65
2024/01/12 09:35:58;;;;;;;16.67;15.87;;;-0.10;99.90;;;;;;5124109;27;20223;-65
2024/01/12 09:38:25;;;;;;;17.30;16.42;;;-0.10;99.90;;;;;;5116999;27;20673;-64
2024/01/12 09:40:52;;;;;;;17.20;16.30;;;-0.10;99.90;;;;;;5111687;28;20210;-65
2024/01/12 09:43:21;;;;;;;16.43;15.63;;;-0.10;99.90;;;;;;5109193;27;20225;-64
2024/01/12 09:45:51;;;;;;;17.85;16.95;;;0.00;99.90;;;;;;5115849;27;20280;-65
2024/01/12 09:48:20;;;;;;;18.90;17.90;;;0.10;99.90;;;;;;5123361;27;20221;-64
2024/01/12 09:50:51;;;;;;;18.27;17.27;;;-0.10;99.90;;;;;;5120290;27;20206;-65
2024/01/12 09:53:18;;;;;;;17.38;16.58;;;-0.10;99.90;;;;;;5115493;27;20226;-65
2024/01/12 09:55:45;;;;;;;18.20;17.30;;;-0.10;99.90;;;;;;5119450;27;20205;-65
2024/01/12 09:58:12;;;;;;;17.23;16.33;;;-0.10;99.90;;;;;;5120574;27;20202;-66
2024/01/12 10:00:41;;;;;;;17.57;16.60;;;-0.10;99.90;;;;;;5116521;27;20229;-66
2024/01/12 10:03:08;;;;;;;17.73;16.83;;;-0.10;99.90;;;;;;5118258;27;20222;-65
2024/01/12 10:05:38;;;;;;;17.35;16.48;;;0.10;99.90;;;;;;5129622;27;20668;-65
2024/01/12 10:08:07;;;;;;;17.30;16.40;;;0.40;99.90;;;;;;5113661;27;20225;-65
2024/01/12 10:10:34;;;;;;;18.10;17.10;;;0.50;99.90;;;;;;5112076;27;20214;-64
2024/01/12 10:13:02;;;;;;;16.63;15.85;;;0.60;99.90;;;;;;5112332;27;20704;-65
2024/01/12 10:15:29;;;;;;;16.60;15.73;;;0.70;99.90;;;;;;5120094;27;20221;-64
2024/01/12 10:17:56;;;;;;;17.95;17.05;;;0.70;99.90;;;;;;5123300;27;20209;-64
2024/01/12 10:20:23;;;;;;;17.90;17.00;;;0.80;99.90;;;;;;5126031;27;20216;-65
2024/01/12 10:22:57;;;;;;;16.60;15.70;;;0.80;99.90;;;;;;5132358;27;20225;-65
2024/01/12 10:25:23;;;;;;;16.17;15.37;;;0.70;99.90;;;;;;5134232;27;20182;-64
2024/01/12 10:27:57;;;;;;;17.40;16.40;;;0.70;99.90;;;;;;5126806;27;20208;-64
2024/01/12 10:30:24;;;;;;;16.63;15.83;;;0.80;99.90;;;;;;5130586;27;20687;-65
2024/01/12 10:32:51;;;;;;;15.87;14.97;;;0.80;99.90;;;;;;5131553;27;20225;-64
2024/01/12 10:35:18;;;;;;;15.43;14.73;;;0.80;99.90;;;;;;5126029;27;20275;-64
2024/01/12 10:37:47;;;;;;;16.60;15.80;;;0.70;99.90;;;;;;5118807;27;20726;-65
2024/01/12 10:40:16;;;;;;;16.40;15.60;;;0.50;99.90;;;;;;5124261;27;20197;-64
2024/01/12 10:42:48;;;;;;;17.17;16.38;;;0.50;99.90;;;;;;5118612;27;20206;-67
2024/01/12 10:45:19;;;;;;;16.13;15.33;;;0.60;99.90;;;;;;5111771;27;20255;-64
2024/01/12 10:47:50;;;;;;;17.13;16.33;;;0.50;99.90;;;;;;5110542;27;20672;-65
2024/01/12 10:50:19;;;;;;;17.27;16.38;;;0.40;99.90;;;;;;5107720;27;20206;-66
2024/01/12 10:52:54;;;;;;;18.38;17.40;;;0.30;99.90;;;;;;5116462;27;22103;-67
2024/01/12 10:55:23;;;;;;;21.43;20.03;;;0.30;99.90;;;;;;5114009;27;20217;-64
2024/01/12 10:57:54;;;;;;;19.38;18.38;;;0.30;99.90;;;;;;5115539;27;20256;-62
2024/01/12 11:00:21;;;;;;;19.02;18.02;;;0.40;99.90;;;;;;5124957;27;20198;-64
2024/01/12 11:02:49;;;;;;;18.60;17.60;;;0.50;99.90;;;;;;5124165;27;20260;-63
2024/01/12 11:05:17;;;;;;;18.70;17.67;;;0.40;99.90;;;;;;5125069;27;20250;-64
2024/01/12 11:07:45;;;;;;;19.13;18.10;;;0.40;99.90;;;;;;5123998;27;20572;-64
2024/01/12 11:10:13;;;;;;;19.10;18.10;;;0.40;99.90;;;;;;5118996;27;20220;-63
2024/01/12 11:12:43;;;;;;;18.30;17.30;;;0.40;99.90;;;;;;5108224;27;20217;-64
2024/01/12 11:15:10;;;;;;;19.13;18.05;;;0.50;99.90;;;;;;5121867;27;20237;-65
2024/01/12 11:17:37;;;;;;;21.43;20.23;;;0.50;99.90;;;;;;5111670;27;20209;-63
2024/01/12 11:20:10;;;;;;;19.13;18.05;;;0.50;99.90;;;;;;5124264;27;20208;-63
2024/01/12 11:22:37;;;;;;;18.07;17.07;;;0.50;99.90;;;;;;5131638;27;20194;-64
2024/01/12 11:25:05;;;;;;;19.73;18.67;;;0.40;99.90;;;;;;5126117;27;20209;-65
2024/01/12 11:27:33;;;;;;;20.03;18.93;;;0.40;99.90;;;;;;5127674;27;20210;-63
2024/01/12 11:30:01;;;;;;;19.47;18.37;;;0.40;99.90;;;;;;5123531;27;20205;-64
2024/01/12 11:32:28;;;;;;;20.23;19.13;;;0.30;99.90;;;;;;5125776;27;20197;-64
2024/01/12 11:35:10;;;;;;;19.83;18.73;;;0.20;99.90;;;;;;5116990;27;20317;-64
2024/01/12 11:37:37;;;;;;;20.90;19.60;;;0.20;99.90;;;;;;5120454;27;20200;-66
2024/01/12 11:40:08;;;;;;;20.40;19.20;;;0.30;99.90;;;;;;5119004;27;20351;-64
2024/01/12 11:42:36;;;;;;;20.60;19.48;;;0.40;99.90;;;;;;5127652;27;20292;-66
2024/01/12 11:45:09;;;;;;;18.50;17.50;;;0.50;99.90;;;;;;5122502;27;20205;-65
2024/01/12 11:47:37;;;;;;;19.10;18.02;;;0.60;99.90;;;;;;5121292;27;20209;-66
2024/01/12 11:50:04;;;;;;;18.88;17.88;;;0.70;99.90;;;;;;5123931;27;20206;-64
2024/01/12 11:52:31;;;;;;;18.88;17.88;;;0.80;99.90;;;;;;5123841;27;20638;-66
2024/01/12 11:54:58;;;;;;;20.23;18.92;;;0.80;99.90;;;;;;5124548;27;20236;-65
2024/01/12 11:57:26;;;;;;;19.27;18.17;;;0.70;99.90;;;;;;5123047;27;20789;-65
2024/01/12 11:59:55;;;;;;;18.90;17.90;;;0.80;99.90;;;;;;5125787;28;20327;-64
2024/01/12 12:02:23;;;;;;;21.17;19.80;;;0.90;99.90;;;;;;5113681;28;20270;-64
2024/01/12 12:04:51;;;;;;;18.48;17.48;;;0.80;99.90;;;;;;5111383;28;20225;-64
2024/01/12 12:07:20;;;;;;;18.90;17.80;;;0.70;99.90;;;;;;5124472;27;20260;-65
2024/01/12 12:09:47;;;;;;;18.90;17.90;;;0.60;99.90;;;;;;5134843;27;20682;-64
2024/01/12 12:12:15;;;;;;;18.60;17.60;;;0.70;99.90;;;;;;5136505;28;20318;-64
2024/01/12 12:14:56;;;;;;;19.65;18.55;;;0.60;99.90;;;;;;5134585;28;20222;-64
2024/01/12 12:17:26;;;;;;;19.97;18.87;;;0.50;99.90;;;;;;5128831;28;20214;-66
2024/01/12 12:19:56;;;;;;;17.33;16.43;;;0.60;99.90;;;;;;5125856;28;20299;-63
2024/01/12 12:22:23;;;;;;;17.50;16.60;;;0.80;99.90;;;;;;5125496;28;20213;-64
2024/01/12 12:24:50;;;;;;;17.60;16.73;;;0.80;99.90;;;;;;5124479;28;20220;-65
2024/01/12 12:27:18;;;;;;;17.83;16.93;;;0.90;99.90;;;;;;5125461;27;20210;-63
2024/01/12 12:29:45;;;;;;;17.80;16.90;;;1.00;99.90;;;;;;5130208;27;20274;-63